sensor_id;sensor_type;location;lat;lon;timestamp;pressure;altitude;pressure_sealevel;temperature;humidity
48668;BME280;34453;52.198;5.004;2023-08-08T00:02:18;101706.53;;;14.86;100.00
48668;BME280;34453;52.198;5.004;2023-08-08T00:04:43;101706.25;;;14.89;100.00
48668;BME280;34453;52.198;5.004;2023-08-08T00:07:08;101704.28;;;14.91;100.00
48668;BME280;34453;52.198;5.004;2023-08-08T00:09:34;101700.56;;;14.94;100.00
48668;BME280;34453;52.198;5.004;2023-08-08T00:11:59;101703.31;;;14.92;100.00
48668;BME280;34453;52.198;5.004;2023-08-08T00:14:25;101696.09;;;14.95;100.00
48668;BME280;34453;52.198;5.004;2023-08-08T00:16:50;101705.50;;;14.97;100.00
48668;BME280;34453;52.198;5.004;2023-08-08T00:19:16;101697.47;;;14.99;100.00
48668;BME280;34453;52.198;5.004;2023-08-08T00:21:41;101700.94;;;14.99;100.00
48668;BME280;34453;52.198;5.004;2023-08-08T00:24:07;101706.47;;;14.96;100.00
48668;BME280;34453;52.198;5.004;2023-08-08T00:26:32;101700.69;;;14.92;100.00
48668;BME280;34453;52.198;5.004;2023-08-08T00:28:58;101701.19;;;14.96;100.00
48668;BME280;34453;52.198;5.004;2023-08-08T00:31:23;101695.09;;;14.96;100.00
48668;BME280;34453;52.198;5.004;2023-08-08T00:33:49;101681.34;;;15.02;100.00
48668;BME280;34453;52.198;5.004;2023-08-08T00:36:14;101691.56;;;15.05;100.00
48668;BME280;34453;52.198;5.004;2023-08-08T00:38:39;101690.63;;;15.06;100.00
48668;BME280;34453;52.198;5.004;2023-08-08T00:41:05;101688.94;;;15.05;100.00
48668;BME280;34453;52.198;5.004;2023-08-08T00:43:30;101697.25;;;15.10;100.00
48668;BME280;34453;52.198;5.004;2023-08-08T00:45:57;101692.66;;;15.12;100.00
48668;BME280;34453;52.198;5.004;2023-08-08T00:48:22;101696.94;;;15.13;100.00
48668;BME280;34453;52.198;5.004;2023-08-08T00:50:48;101695.97;;;15.14;100.00
48668;BME280;34453;52.198;5.004;2023-08-08T00:53:15;101686.41;;;15.13;100.00
48668;BME280;34453;52.198;5.004;2023-08-08T00:55:40;101683.44;;;15.16;100.00
48668;BME280;34453;52.198;5.004;2023-08-08T00:58:06;101680.53;;;15.19;100.00
48668;BME280;34453;52.198;5.004;2023-08-08T01:00:32;101676.22;;;15.18;100.00
48668;BME280;34453;52.198;5.004;2023-08-08T01:02:57;101671.63;;;15.20;100.00
48668;BME280;34453;52.198;5.004;2023-08-08T01:05:24;101663.44;;;15.23;100.00
48668;BME280;34453;52.198;5.004;2023-08-08T01:08:11;101658.38;;;15.30;100.00
48668;BME280;34453;52.198;5.004;2023-08-08T01:10:40;101656.25;;;15.33;100.00
48668;BME280;34453;52.198;5.004;2023-08-08T01:13:25;101650.84;;;15.35;100.00
48668;BME280;34453;52.198;5.004;2023-08-08T01:15:53;101649.19;;;15.34;100.00
48668;BME280;34453;52.198;5.004;2023-08-08T01:18:19;101642.09;;;15.34;100.00
48668;BME280;34453;52.198;5.004;2023-08-08T01:20:45;101618.66;;;15.31;100.00
48668;BME280;34453;52.198;5.004;2023-08-08T01:23:19;101616.03;;;15.31;100.00
48668;BME280;34453;52.198;5.004;2023-08-08T01:25:49;101611.91;;;15.29;100.00
48668;BME280;34453;52.198;5.004;2023-08-08T01:28:15;101611.06;;;15.28;100.00
48668;BME280;34453;52.198;5.004;2023-08-08T01:30:40;101606.63;;;15.29;100.00
48668;BME280;34453;52.198;5.004;2023-08-08T01:33:06;101595.56;;;15.25;100.00
48668;BME280;34453;52.198;5.004;2023-08-08T01:35:37;101595.56;;;15.25;100.00
48668;BME280;34453;52.198;5.004;2023-08-08T01:38:14;101588.63;;;15.24;100.00
48668;BME280;34453;52.198;5.004;2023-08-08T01:40:42;101588.94;;;15.21;100.00
48668;BME280;34453;52.198;5.004;2023-08-08T01:43:08;101582.00;;;15.20;100.00
48668;BME280;34453;52.198;5.004;2023-08-08T01:45:35;101582.00;;;15.20;100.00
48668;BME280;34453;52.198;5.004;2023-08-08T01:48:09;101575.91;;;15.20;100.00
48668;BME280;34453;52.198;5.004;2023-08-08T01:50:35;101570.13;;;15.16;100.00
48668;BME280;34453;52.198;5.004;2023-08-08T01:53:01;101560.03;;;15.11;100.00
48668;BME280;34453;52.198;5.004;2023-08-08T01:55:26;101553.25;;;15.09;100.00
48668;BME280;34453;52.198;5.004;2023-08-08T01:57:52;101551.91;;;15.05;100.00
48668;BME280;34453;52.198;5.004;2023-08-08T02:00:17;101533.09;;;15.00;100.00
48668;BME280;34453;52.198;5.004;2023-08-08T02:02:43;101529.13;;;14.96;100.00
48668;BME280;34453;52.198;5.004;2023-08-08T02:05:08;101538.16;;;14.93;100.00
48668;BME280;34453;52.198;5.004;2023-08-08T02:07:34;101534.03;;;14.90;100.00
48668;BME280;34453;52.198;5.004;2023-08-08T02:09:59;101530.41;;;14.91;100.00
48668;BME280;34453;52.198;5.004;2023-08-08T02:12:25;101524.63;;;14.88;100.00
48668;BME280;34453;52.198;5.004;2023-08-08T02:14:50;101529.38;;;14.84;100.00
48668;BME280;34453;52.198;5.004;2023-08-08T02:17:16;101522.91;;;14.79;100.00
48668;BME280;34453;52.198;5.004;2023-08-08T02:19:41;101518.91;;;14.75;100.00
48668;BME280;34453;52.198;5.004;2023-08-08T02:22:07;101504.94;;;14.74;100.00
48668;BME280;34453;52.198;5.004;2023-08-08T02:24:32;101506.88;;;14.72;100.00
48668;BME280;34453;52.198;5.004;2023-08-08T02:26:58;101509.53;;;14.72;100.00
48668;BME280;34453;52.198;5.004;2023-08-08T02:29:23;101507.56;;;14.74;100.00
48668;BME280;34453;52.198;5.004;2023-08-08T02:31:48;101507.84;;;14.71;100.00
48668;BME280;34453;52.198;5.004;2023-08-08T02:34:14;101501.75;;;14.70;100.00
48668;BME280;34453;52.198;5.004;2023-08-08T02:36:39;101516.44;;;14.73;100.00
48668;BME280;34453;52.198;5.004;2023-08-08T02:39:05;101506.88;;;14.72;100.00
48668;BME280;34453;52.198;5.004;2023-08-08T02:41:30;101511.31;;;14.71;100.00
48668;BME280;34453;52.198;5.004;2023-08-08T02:43:56;101504.25;;;14.72;100.00
48668;BME280;34453;52.198;5.004;2023-08-08T02:46:21;101509.00;;;14.68;100.00
48668;BME280;34453;52.198;5.004;2023-08-08T02:48:47;101495.28;;;14.65;100.00
48668;BME280;34453;52.198;5.004;2023-08-08T02:51:12;101499.59;;;14.66;100.00
48668;BME280;34453;52.198;5.004;2023-08-08T02:53:37;101500.88;;;14.62;100.00
48668;BME280;34453;52.198;5.004;2023-08-08T02:56:03;101509.75;;;14.61;100.00
48668;BME280;34453;52.198;5.004;2023-08-08T02:58:28;101505.75;;;14.57;100.00
48668;BME280;34453;52.198;5.004;2023-08-08T03:00:54;101509.06;;;14.59;100.00
48668;BME280;34453;52.198;5.004;2023-08-08T03:03:19;101500.63;;;14.55;100.00
48668;BME280;34453;52.198;5.004;2023-08-08T03:05:45;101494.81;;;14.51;100.00
48668;BME280;34453;52.198;5.004;2023-08-08T03:08:11;101498.28;;;14.52;100.00
48668;BME280;34453;52.198;5.004;2023-08-08T03:10:37;101496.63;;;14.51;100.00
48668;BME280;34453;52.198;5.004;2023-08-08T03:13:02;101494.13;;;14.49;100.00
48668;BME280;34453;52.198;5.004;2023-08-08T03:15:28;101494.13;;;14.49;100.00
48668;BME280;34453;52.198;5.004;2023-08-08T03:17:53;101490.53;;;14.50;100.00
48668;BME280;34453;52.198;5.004;2023-08-08T03:20:19;101495.47;;;14.54;100.00
48668;BME280;34453;52.198;5.004;2023-08-08T03:22:44;101483.84;;;14.56;100.00
48668;BME280;34453;52.198;5.004;2023-08-08T03:25:09;101484.94;;;14.54;100.00
48668;BME280;34453;52.198;5.004;2023-08-08T03:27:35;101475.41;;;14.52;100.00
48668;BME280;34453;52.198;5.004;2023-08-08T03:30:01;101479.31;;;14.48;100.00
48668;BME280;34453;52.198;5.004;2023-08-08T03:32:27;101470.88;;;14.45;100.00
48668;BME280;34453;52.198;5.004;2023-08-08T03:34:53;101484.38;;;14.42;100.00
48668;BME280;34453;52.198;5.004;2023-08-08T03:37:18;101479.00;;;14.34;100.00
48668;BME280;34453;52.198;5.004;2023-08-08T03:39:44;101484.59;;;14.30;100.00
48668;BME280;34453;52.198;5.004;2023-08-08T03:42:09;101489.03;;;14.30;100.00
48668;BME280;34453;52.198;5.004;2023-08-08T03:44:35;101487.34;;;14.29;100.00
48668;BME280;34453;52.198;5.004;2023-08-08T03:47:00;101473.84;;;14.24;100.00
48668;BME280;34453;52.198;5.004;2023-08-08T03:49:26;101478.56;;;14.20;100.00
48668;BME280;34453;52.198;5.004;2023-08-08T03:51:51;101479.69;;;14.18;100.00
48668;BME280;34453;52.198;5.004;2023-08-08T03:54:17;101479.41;;;14.21;100.00
48668;BME280;34453;52.198;5.004;2023-08-08T03:56:43;101468.19;;;14.19;100.00
48668;BME280;34453;52.198;5.004;2023-08-08T03:59:09;101470.84;;;14.19;100.00
48668;BME280;34453;52.198;5.004;2023-08-08T04:01:35;101471.78;;;14.18;100.00
48668;BME280;34453;52.198;5.004;2023-08-08T04:04:01;101463.38;;;14.14;100.00
48668;BME280;34453;52.198;5.004;2023-08-08T04:06:26;101460.75;;;14.14;100.00
48668;BME280;34453;52.198;5.004;2023-08-08T04:08:51;101463.53;;;14.13;100.00
48668;BME280;34453;52.198;5.004;2023-08-08T04:11:17;101468.41;;;14.07;100.00
48668;BME280;34453;52.198;5.004;2023-08-08T04:13:42;101465.25;;;14.04;100.00
48668;BME280;34453;52.198;5.004;2023-08-08T04:16:08;101459.44;;;14.00;100.00
48668;BME280;34453;52.198;5.004;2023-08-08T04:18:33;101465.16;;;13.96;100.00
48668;BME280;34453;52.198;5.004;2023-08-08T04:20:59;101458.25;;;13.95;100.00
48668;BME280;34453;52.198;5.004;2023-08-08T04:23:24;101455.75;;;13.93;100.00
48668;BME280;34453;52.198;5.004;2023-08-08T04:25:51;101458.38;;;13.93;100.00
48668;BME280;34453;52.198;5.004;2023-08-08T04:28:17;101461.16;;;13.92;100.00
48668;BME280;34453;52.198;5.004;2023-08-08T04:30:42;101461.00;;;13.93;100.00
48668;BME280;34453;52.198;5.004;2023-08-08T04:33:08;101464.63;;;13.92;100.00
48668;BME280;34453;52.198;5.004;2023-08-08T04:35:33;101459.38;;;13.92;100.00
48668;BME280;34453;52.198;5.004;2023-08-08T04:37:58;101466.81;;;13.97;100.00
48668;BME280;34453;52.198;5.004;2023-08-08T04:40:24;101458.25;;;13.95;100.00
48668;BME280;34453;52.198;5.004;2023-08-08T04:42:50;101448.84;;;13.92;100.00
48668;BME280;34453;52.198;5.004;2023-08-08T04:45:16;101462.97;;;13.91;100.00
48668;BME280;34453;52.198;5.004;2023-08-08T04:47:41;101467.25;;;13.92;100.00
48668;BME280;34453;52.198;5.004;2023-08-08T04:50:07;101470.84;;;13.91;100.00
48668;BME280;34453;52.198;5.004;2023-08-08T04:52:32;101475.44;;;13.89;100.00
48668;BME280;34453;52.198;5.004;2023-08-08T04:54:58;101467.03;;;13.85;100.00
48668;BME280;34453;52.198;5.004;2023-08-08T04:57:23;101466.19;;;13.85;100.00
48668;BME280;34453;52.198;5.004;2023-08-08T04:59:49;101469.66;;;13.85;100.00
48668;BME280;34453;52.198;5.004;2023-08-08T05:02:14;101465.22;;;13.86;100.00
48668;BME280;34453;52.198;5.004;2023-08-08T05:04:40;101466.03;;;13.86;100.00
48668;BME280;34453;52.198;5.004;2023-08-08T05:07:05;101465.22;;;13.86;100.00
48668;BME280;34453;52.198;5.004;2023-08-08T05:09:31;101461.59;;;13.87;100.00
48668;BME280;34453;52.198;5.004;2023-08-08T05:11:57;101462.28;;;13.89;100.00
48668;BME280;34453;52.198;5.004;2023-08-08T05:14:22;101474.03;;;13.95;100.00
48668;BME280;34453;52.198;5.004;2023-08-08T05:16:47;101465.69;;;13.99;100.00
48668;BME280;34453;52.198;5.004;2023-08-08T05:19:13;101465.94;;;14.06;100.00
48668;BME280;34453;52.198;5.004;2023-08-08T05:21:38;101472.53;;;14.10;100.00
48668;BME280;34453;52.198;5.004;2023-08-08T05:24:04;101465.47;;;14.10;100.00
48668;BME280;34453;52.198;5.004;2023-08-08T05:26:29;101461.44;;;14.16;100.00
48668;BME280;34453;52.198;5.004;2023-08-08T05:28:55;101455.56;;;14.22;100.00
48668;BME280;34453;52.198;5.004;2023-08-08T05:31:20;101460.09;;;14.30;100.00
48668;BME280;34453;52.198;5.004;2023-08-08T05:33:48;101461.44;;;14.34;100.00
48668;BME280;34453;52.198;5.004;2023-08-08T05:36:14;101467.75;;;14.41;100.00
48668;BME280;34453;52.198;5.004;2023-08-08T05:38:39;101461.72;;;14.49;100.00
48668;BME280;34453;52.198;5.004;2023-08-08T05:41:06;101465.84;;;14.51;100.00
48668;BME280;34453;52.198;5.004;2023-08-08T05:43:31;101464.31;;;14.59;100.00
48668;BME280;34453;52.198;5.004;2023-08-08T05:45:57;101465.34;;;14.66;100.00
48668;BME280;34453;52.198;5.004;2023-08-08T05:48:22;101462.72;;;14.66;100.00
48668;BME280;34453;52.198;5.004;2023-08-08T05:50:48;101463.75;;;14.73;100.00
48668;BME280;34453;52.198;5.004;2023-08-08T05:53:13;101465.63;;;14.81;100.00
48668;BME280;34453;52.198;5.004;2023-08-08T05:55:41;101470.72;;;14.82;100.00
48668;BME280;34453;52.198;5.004;2023-08-08T05:58:07;101470.13;;;14.88;100.00
48668;BME280;34453;52.198;5.004;2023-08-08T06:00:32;101467.84;;;14.93;100.00
48668;BME280;34453;52.198;5.004;2023-08-08T06:02:58;101480.41;;;15.00;100.00
48668;BME280;34453;52.198;5.004;2023-08-08T06:05:23;101474.00;;;15.02;100.00
48668;BME280;34453;52.198;5.004;2023-08-08T06:07:49;101468.94;;;15.09;100.00
48668;BME280;34453;52.198;5.004;2023-08-08T06:10:15;101477.44;;;15.21;100.00
48668;BME280;34453;52.198;5.004;2023-08-08T06:12:40;101475.00;;;15.27;100.00
48668;BME280;34453;52.198;5.004;2023-08-08T06:15:06;101472.03;;;15.30;100.00
48668;BME280;34453;52.198;5.004;2023-08-08T06:17:32;101472.09;;;15.39;100.00
48668;BME280;34453;52.198;5.004;2023-08-08T06:19:58;101477.38;;;15.47;100.00
48668;BME280;34453;52.198;5.004;2023-08-08T06:22:23;101473.44;;;15.51;100.00
48668;BME280;34453;52.198;5.004;2023-08-08T06:24:49;101485.00;;;15.58;100.00
48668;BME280;34453;52.198;5.004;2023-08-08T06:27:15;101472.66;;;15.59;100.00
48668;BME280;34453;52.198;5.004;2023-08-08T06:29:40;101476.47;;;15.64;100.00
48668;BME280;34453;52.198;5.004;2023-08-08T06:32:06;101483.47;;;15.73;100.00
48668;BME280;34453;52.198;5.004;2023-08-08T06:34:32;101483.81;;;15.79;100.00
48668;BME280;34453;52.198;5.004;2023-08-08T06:36:57;101479.56;;;15.86;100.00
48668;BME280;34453;52.198;5.004;2023-08-08T06:39:23;101485.16;;;15.91;100.00
48668;BME280;34453;52.198;5.004;2023-08-08T06:41:48;101473.34;;;16.03;100.00
48668;BME280;34453;52.198;5.004;2023-08-08T06:44:14;101472.00;;;16.07;100.00
48668;BME280;34453;52.198;5.004;2023-08-08T06:46:39;101469.41;;;16.15;100.00
48668;BME280;34453;52.198;5.004;2023-08-08T06:49:04;101474.81;;;16.14;100.00
48668;BME280;34453;52.198;5.004;2023-08-08T06:51:32;101478.31;;;16.23;100.00
48668;BME280;34453;52.198;5.004;2023-08-08T06:53:57;101469.75;;;16.29;100.00
48668;BME280;34453;52.198;5.004;2023-08-08T06:56:23;101467.91;;;16.29;100.00
48668;BME280;34453;52.198;5.004;2023-08-08T06:58:48;101466.31;;;16.36;100.00
48668;BME280;34453;52.198;5.004;2023-08-08T07:01:13;101460.84;;;16.38;100.00
48668;BME280;34453;52.198;5.004;2023-08-08T07:03:39;101464.47;;;16.37;100.00
48668;BME280;34453;52.198;5.004;2023-08-08T07:06:05;101461.34;;;16.42;100.00
48668;BME280;34453;52.198;5.004;2023-08-08T07:08:31;101462.81;;;16.44;100.00
48668;BME280;34453;52.198;5.004;2023-08-08T07:10:57;101468.94;;;16.45;100.00
48668;BME280;34453;52.198;5.004;2023-08-08T07:13:23;101455.56;;;16.46;100.00
48668;BME280;34453;52.198;5.004;2023-08-08T07:15:48;101464.47;;;16.53;100.00
48668;BME280;34453;52.198;5.004;2023-08-08T07:18:14;101469.13;;;16.68;100.00
48668;BME280;34453;52.198;5.004;2023-08-08T07:20:40;101464.19;;;16.81;100.00
48668;BME280;34453;52.198;5.004;2023-08-08T07:23:06;101463.34;;;16.72;100.00
48668;BME280;34453;52.198;5.004;2023-08-08T07:25:32;101461.66;;;16.71;100.00
48668;BME280;34453;52.198;5.004;2023-08-08T07:27:57;101477.34;;;16.73;100.00
48668;BME280;34453;52.198;5.004;2023-08-08T07:30:23;101464.50;;;16.70;100.00
48668;BME280;34453;52.198;5.004;2023-08-08T07:32:49;101472.94;;;16.82;100.00
48668;BME280;34453;52.198;5.004;2023-08-08T07:35:14;101464.00;;;16.83;100.00
48668;BME280;34453;52.198;5.004;2023-08-08T07:37:40;101456.22;;;16.97;100.00
48668;BME280;34453;52.198;5.004;2023-08-08T07:40:20;101446.16;;;16.93;100.00
48668;BME280;34453;52.198;5.004;2023-08-08T07:42:47;101461.66;;;17.04;100.00
48668;BME280;34453;52.198;5.004;2023-08-08T07:45:13;101443.66;;;16.99;100.00
48668;BME280;34453;52.198;5.004;2023-08-08T07:47:39;101442.34;;;17.04;100.00
48668;BME280;34453;52.198;5.004;2023-08-08T07:50:05;101441.91;;;17.31;100.00
48668;BME280;34453;52.198;5.004;2023-08-08T07:52:37;101445.13;;;17.10;100.00
48668;BME280;34453;52.198;5.004;2023-08-08T07:55:03;101437.56;;;16.99;100.00
48668;BME280;34453;52.198;5.004;2023-08-08T07:57:29;101433.44;;;16.96;100.00
48668;BME280;34453;52.198;5.004;2023-08-08T08:00:06;101443.66;;;16.99;100.00
48668;BME280;34453;52.198;5.004;2023-08-08T08:02:46;101456.03;;;17.07;100.00
48668;BME280;34453;52.198;5.004;2023-08-08T08:05:12;101441.09;;;17.23;100.00
48668;BME280;34453;52.198;5.004;2023-08-08T08:07:39;101439.22;;;17.48;100.00
48668;BME280;34453;52.198;5.004;2023-08-08T08:10:07;101440.22;;;17.38;100.00
48668;BME280;34453;52.198;5.004;2023-08-08T08:12:34;101455.94;;;17.32;100.00
48668;BME280;34453;52.198;5.004;2023-08-08T08:15:00;101439.75;;;17.43;100.00
48668;BME280;34453;52.198;5.004;2023-08-08T08:17:27;101441.59;;;17.34;100.00
48668;BME280;34453;52.198;5.004;2023-08-08T08:19:53;101445.59;;;17.14;100.00
48668;BME280;34453;52.198;5.004;2023-08-08T08:22:19;101443.53;;;17.40;100.00
48668;BME280;34453;52.198;5.004;2023-08-08T08:24:45;101453.03;;;17.58;100.00
48668;BME280;34453;52.198;5.004;2023-08-08T08:27:11;101446.50;;;17.46;100.00
48668;BME280;34453;52.198;5.004;2023-08-08T08:29:37;101437.94;;;17.35;100.00
48668;BME280;34453;52.198;5.004;2023-08-08T08:32:02;101435.00;;;17.30;100.00
48668;BME280;34453;52.198;5.004;2023-08-08T08:34:28;101434.84;;;17.24;100.00
48668;BME280;34453;52.198;5.004;2023-08-08T08:36:53;101438.28;;;17.32;100.00
48668;BME280;34453;52.198;5.004;2023-08-08T08:39:19;101446.38;;;17.31;100.00
48668;BME280;34453;52.198;5.004;2023-08-08T08:41:48;101439.75;;;17.43;100.00
48668;BME280;34453;52.198;5.004;2023-08-08T08:44:14;101442.81;;;17.55;100.00
48668;BME280;34453;52.198;5.004;2023-08-08T08:46:41;101444.19;;;17.43;100.00
48668;BME280;34453;52.198;5.004;2023-08-08T08:49:07;101468.91;;;17.10;100.00
48668;BME280;34453;52.198;5.004;2023-08-08T08:51:36;101456.53;;;17.03;100.00
48668;BME280;34453;52.198;5.004;2023-08-08T08:54:02;101452.72;;;17.13;100.00
48668;BME280;34453;52.198;5.004;2023-08-08T08:56:28;101464.81;;;16.99;100.00
48668;BME280;34453;52.198;5.004;2023-08-08T08:58:54;101464.75;;;17.16;100.00
48668;BME280;34453;52.198;5.004;2023-08-08T09:01:20;101461.75;;;17.27;100.00
48668;BME280;34453;52.198;5.004;2023-08-08T09:03:47;101463.50;;;17.51;100.00
48668;BME280;34453;52.198;5.004;2023-08-08T09:06:13;101457.75;;;17.39;100.00
48668;BME280;34453;52.198;5.004;2023-08-08T09:08:41;101452.47;;;17.39;100.00
48668;BME280;34453;52.198;5.004;2023-08-08T09:11:07;101466.69;;;17.38;100.00
48668;BME280;34453;52.198;5.004;2023-08-08T09:13:39;101464.66;;;17.49;100.00
48668;BME280;34453;52.198;5.004;2023-08-08T09:16:08;101467.19;;;17.81;100.00
48668;BME280;34453;52.198;5.004;2023-08-08T09:18:34;101465.09;;;17.60;100.00
48668;BME280;34453;52.198;5.004;2023-08-08T09:21:03;101463.63;;;17.58;100.00
48668;BME280;34453;52.198;5.004;2023-08-08T09:23:28;101455.66;;;17.66;100.00
48668;BME280;34453;52.198;5.004;2023-08-08T09:25:54;101466.63;;;17.55;100.00
48668;BME280;34453;52.198;5.004;2023-08-08T09:28:20;101459.63;;;17.70;100.00
48668;BME280;34453;52.198;5.004;2023-08-08T09:30:45;101465.22;;;17.75;100.00
48668;BME280;34453;52.198;5.004;2023-08-08T09:33:11;101453.41;;;17.55;100.00
48668;BME280;34453;52.198;5.004;2023-08-08T09:35:40;101452.91;;;17.51;100.00
48668;BME280;34453;52.198;5.004;2023-08-08T09:38:06;101454.38;;;17.54;100.00
48668;BME280;34453;52.198;5.004;2023-08-08T09:40:32;101454.84;;;17.66;100.00
48668;BME280;34453;52.198;5.004;2023-08-08T09:42:58;101473.16;;;17.84;100.00
48668;BME280;34453;52.198;5.004;2023-08-08T09:45:24;101456.75;;;17.88;100.00
48668;BME280;34453;52.198;5.004;2023-08-08T09:47:52;101457.53;;;17.97;100.00
48668;BME280;34453;52.198;5.004;2023-08-08T09:50:19;101468.25;;;18.27;100.00
48668;BME280;34453;52.198;5.004;2023-08-08T09:52:46;101461.75;;;18.06;100.00
48668;BME280;34453;52.198;5.004;2023-08-08T09:55:12;101468.84;;;17.83;100.00
48668;BME280;34453;52.198;5.004;2023-08-08T09:57:41;101463.75;;;18.04;100.00
48668;BME280;34453;52.198;5.004;2023-08-08T10:00:08;101459.75;;;18.31;100.00
48668;BME280;34453;52.198;5.004;2023-08-08T10:02:42;101473.78;;;18.17;100.00
48668;BME280;34453;52.198;5.004;2023-08-08T10:05:09;101466.00;;;17.92;100.00
48668;BME280;34453;52.198;5.004;2023-08-08T10:07:35;101460.06;;;17.82;100.00
48668;BME280;34453;52.198;5.004;2023-08-08T10:10:01;101459.06;;;18.14;100.00
48668;BME280;34453;52.198;5.004;2023-08-08T10:12:27;101465.03;;;18.16;100.00
48668;BME280;34453;52.198;5.004;2023-08-08T10:14:53;101457.47;;;18.51;100.00
48668;BME280;34453;52.198;5.004;2023-08-08T10:17:18;101460.97;;;18.67;100.00
48668;BME280;34453;52.198;5.004;2023-08-08T10:19:54;101463.47;;;18.45;100.00
48668;BME280;34453;52.198;5.004;2023-08-08T10:22:21;101468.34;;;18.33;100.00
48668;BME280;34453;52.198;5.004;2023-08-08T10:24:51;101467.41;;;18.49;100.00
48668;BME280;34453;52.198;5.004;2023-08-08T10:27:28;101464.72;;;18.34;100.00
48668;BME280;34453;52.198;5.004;2023-08-08T10:30:07;101475.78;;;18.38;100.00
48668;BME280;34453;52.198;5.004;2023-08-08T10:32:43;101461.72;;;18.14;100.00
48668;BME280;34453;52.198;5.004;2023-08-08T10:35:10;101467.06;;;18.06;100.00
48668;BME280;34453;52.198;5.004;2023-08-08T10:37:37;101473.81;;;18.32;100.00
48668;BME280;34453;52.198;5.004;2023-08-08T10:40:03;101463.53;;;18.37;100.00
48668;BME280;34453;52.198;5.004;2023-08-08T10:42:40;101480.09;;;18.77;100.00
48668;BME280;34453;52.198;5.004;2023-08-08T10:45:09;101464.09;;;18.47;100.00
48668;BME280;34453;52.198;5.004;2023-08-08T10:47:36;101464.09;;;18.47;100.00
48668;BME280;34453;52.198;5.004;2023-08-08T10:50:14;101471.19;;;18.55;100.00
48668;BME280;34453;52.198;5.004;2023-08-08T10:55:25;101465.41;;;18.51;100.00
48668;BME280;34453;52.198;5.004;2023-08-08T10:58:12;101462.09;;;18.49;100.00
48668;BME280;34453;52.198;5.004;2023-08-08T11:00:41;101473.84;;;18.70;100.00
48668;BME280;34453;52.198;5.004;2023-08-08T11:03:08;101478.72;;;18.43;100.00
48668;BME280;34453;52.198;5.004;2023-08-08T11:05:36;101486.81;;;18.64;100.00
48668;BME280;34453;52.198;5.004;2023-08-08T11:08:03;101487.63;;;18.65;100.00
48668;BME280;34453;52.198;5.004;2023-08-08T11:10:35;101472.91;;;18.48;100.00
48668;BME280;34453;52.198;5.004;2023-08-08T11:13:02;101490.38;;;18.57;100.00
48668;BME280;34453;52.198;5.004;2023-08-08T11:15:28;101471.72;;;18.50;100.00
48668;BME280;34453;52.198;5.004;2023-08-08T11:17:57;101493.44;;;18.46;100.00
48668;BME280;34453;52.198;5.004;2023-08-08T11:20:23;101487.66;;;18.42;100.00
48668;BME280;34453;52.198;5.004;2023-08-08T11:22:55;101483.72;;;18.61;100.00
48668;BME280;34453;52.198;5.004;2023-08-08T11:25:22;101482.44;;;18.72;100.00
48668;BME280;34453;52.198;5.004;2023-08-08T11:27:50;101481.19;;;18.68;100.00
48668;BME280;34453;52.198;5.004;2023-08-08T11:30:16;101481.78;;;18.78;100.00
48668;BME280;34453;52.198;5.004;2023-08-08T11:32:42;101470.59;;;18.68;100.00
48668;BME280;34453;52.198;5.004;2023-08-08T11:35:08;101464.88;;;18.56;100.00
48668;BME280;34453;52.198;5.004;2023-08-08T11:37:34;101487.38;;;18.60;100.00
48668;BME280;34453;52.198;5.004;2023-08-08T11:40:01;101477.63;;;18.75;100.00
48668;BME280;34453;52.198;5.004;2023-08-08T11:42:26;101466.28;;;19.04;100.00
48668;BME280;34453;52.198;5.004;2023-08-08T11:44:52;101470.31;;;19.15;100.00
48668;BME280;34453;52.198;5.004;2023-08-08T11:47:24;101466.06;;;18.91;100.00
48668;BME280;34453;52.198;5.004;2023-08-08T11:49:49;101457.69;;;18.64;100.00
48668;BME280;34453;52.198;5.004;2023-08-08T11:52:18;101474.53;;;18.49;100.00
48668;BME280;34453;52.198;5.004;2023-08-08T11:54:44;101478.38;;;18.46;100.00
48668;BME280;34453;52.198;5.004;2023-08-08T11:57:09;101468.97;;;18.58;100.00
48668;BME280;34453;52.198;5.004;2023-08-08T11:59:35;101468.06;;;18.51;100.00
48668;BME280;34453;52.198;5.004;2023-08-08T12:02:01;101469.06;;;18.50;100.00
48668;BME280;34453;52.198;5.004;2023-08-08T12:04:26;101462.44;;;18.92;100.00
48668;BME280;34453;52.198;5.004;2023-08-08T12:07:00;101470.84;;;18.81;100.00
48668;BME280;34453;52.198;5.004;2023-08-08T12:09:31;101466.19;;;18.98;100.00
48668;BME280;34453;52.198;5.004;2023-08-08T12:12:01;101467.53;;;19.68;100.00
48668;BME280;34453;52.198;5.004;2023-08-08T12:14:26;101454.28;;;19.38;100.00
48668;BME280;34453;52.198;5.004;2023-08-08T12:16:53;101466.56;;;19.24;100.00
48668;BME280;34453;52.198;5.004;2023-08-08T12:19:23;101465.97;;;18.84;100.00
48668;BME280;34453;52.198;5.004;2023-08-08T12:21:50;101477.13;;;18.57;100.00
48668;BME280;34453;52.198;5.004;2023-08-08T12:24:17;101472.91;;;18.48;100.00
48668;BME280;34453;52.198;5.004;2023-08-08T12:26:43;101479.44;;;18.37;100.00
48668;BME280;34453;52.198;5.004;2023-08-08T12:29:08;101476.66;;;18.53;100.00
48668;BME280;34453;52.198;5.004;2023-08-08T12:31:34;101470.00;;;18.57;100.00
48668;BME280;34453;52.198;5.004;2023-08-08T12:34:00;101490.31;;;18.42;100.00
48668;BME280;34453;52.198;5.004;2023-08-08T12:36:25;101477.88;;;18.42;100.00
48668;BME280;34453;52.198;5.004;2023-08-08T12:38:51;101466.44;;;18.65;100.00
48668;BME280;34453;52.198;5.004;2023-08-08T12:41:17;101470.72;;;18.51;100.00